createdAt,value
2023-04-28T00:00:00.683Z,0
2023-04-28T00:01:05.528Z,0
2023-04-28T00:02:02.131Z,0
2023-04-28T00:03:01.603Z,0
2023-04-28T00:04:01.470Z,0
2023-04-28T00:05:01.464Z,0
2023-04-28T00:06:09.078Z,0
2023-04-28T00:07:01.169Z,0
2023-04-28T00:08:01.162Z,0
2023-04-28T00:09:01.132Z,0
2023-04-28T00:10:01.413Z,0
2023-04-28T00:11:12.586Z,0
2023-04-28T00:12:01.866Z,0
2023-04-28T00:13:01.718Z,0
2023-04-28T00:14:01.146Z,0
2023-04-28T00:15:01.066Z,0
2023-04-28T00:16:15.574Z,0
2023-04-28T00:17:01.682Z,0
2023-04-28T00:18:01.537Z,0
2023-04-28T00:19:01.499Z,0
2023-04-28T00:20:01.084Z,0
2023-04-28T00:21:01.086Z,0
2023-04-28T00:22:01.107Z,0
2023-04-28T00:23:01.125Z,0
2023-04-28T00:24:01.107Z,0
2023-04-28T00:25:01.121Z,0
2023-04-28T00:26:01.137Z,0
2023-04-28T00:27:01.475Z,0
2023-04-28T00:28:01.332Z,0.11944444444444444
2023-04-28T00:29:02.255Z,0.23888888888888887
2023-04-28T00:30:01.046Z,0
2023-04-28T00:31:01.275Z,0
2023-04-28T00:32:01.124Z,0
2023-04-28T00:33:01.104Z,0
2023-04-28T00:34:01.068Z,0
2023-04-28T00:35:01.077Z,0
2023-04-28T00:36:01.262Z,0
2023-04-28T00:37:01.126Z,0
2023-04-28T00:38:01.113Z,0
2023-04-28T00:39:01.003Z,0
2023-04-28T00:40:01.354Z,0
2023-04-28T00:41:01.447Z,0
2023-04-28T00:42:01.134Z,0
2023-04-28T00:43:01.052Z,0
2023-04-28T00:44:01.032Z,0
2023-04-28T00:45:01.036Z,0
2023-04-28T00:46:01.085Z,0
2023-04-28T00:47:01.257Z,0
2023-04-28T00:48:01.118Z,0
2023-04-28T00:49:01.688Z,0
2023-04-28T00:50:01.524Z,0
2023-04-28T00:51:01.475Z,0
2023-04-28T00:52:01.093Z,0
2023-04-28T00:53:01.111Z,0
2023-04-28T00:54:03.826Z,0
2023-04-28T00:55:01.137Z,0
2023-04-28T00:56:01.504Z,0
2023-04-28T00:57:01.590Z,0
2023-04-28T00:58:01.493Z,0
2023-04-28T00:59:01.128Z,0
2023-04-28T01:00:01.369Z,0
2023-04-28T01:01:01.110Z,0
2023-04-28T01:02:01.073Z,0
2023-04-28T01:03:01.598Z,0
2023-04-28T01:04:01.255Z,0
2023-04-28T01:05:01.077Z,0
2023-04-28T01:06:01.081Z,0
2023-04-28T01:07:02.194Z,0
2023-04-28T01:08:01.225Z,0
2023-04-28T01:09:01.028Z,0
2023-04-28T01:10:01.442Z,0
2023-04-28T01:11:01.126Z,0
2023-04-28T01:12:01.140Z,0
2023-04-28T01:13:01.131Z,0
2023-04-28T01:14:01.134Z,0
2023-04-28T01:15:01.979Z,0
2023-04-28T01:16:02.045Z,0
2023-04-28T01:17:01.257Z,0
2023-04-28T01:18:01.758Z,0
2023-04-28T01:19:01.239Z,0
2023-04-28T01:20:04.722Z,0
2023-04-28T01:21:02.001Z,0
2023-04-28T01:22:01.855Z,0
2023-04-28T01:23:01.055Z,0
2023-04-28T01:24:01.139Z,0
2023-04-28T01:25:07.933Z,0
2023-04-28T01:26:01.512Z,0
2023-04-28T01:27:01.391Z,0
2023-04-28T01:28:01.331Z,0
2023-04-28T01:29:02.015Z,0
2023-04-28T01:30:01.118Z,0
2023-04-28T01:31:01.128Z,0
2023-04-28T01:32:01.489Z,0
2023-04-28T01:33:01.124Z,0
2023-04-28T01:34:01.032Z,0
2023-04-28T01:35:01.053Z,0
2023-04-28T01:36:01.071Z,0
2023-04-28T01:37:01.343Z,0
2023-04-28T01:38:02.090Z,0
2023-04-28T01:39:00.905Z,0
2023-04-28T01:40:01.118Z,0
2023-04-28T01:41:01.083Z,0
2023-04-28T01:42:01.621Z,0
2023-04-28T01:43:01.015Z,0
2023-04-28T01:44:01.021Z,0
2023-04-28T01:45:01.108Z,0
2023-04-28T01:46:01.175Z,0
2023-04-28T01:47:05.849Z,0
2023-04-28T01:48:01.527Z,0
2023-04-28T01:49:01.425Z,0
2023-04-28T01:50:01.849Z,0
2023-04-28T01:51:01.047Z,0
2023-04-28T01:52:09.203Z,0
2023-04-28T01:53:01.072Z,0
2023-04-28T01:54:01.031Z,0
2023-04-28T01:55:01.033Z,0
2023-04-28T01:56:01.524Z,0
2023-04-28T01:57:12.947Z,0
2023-04-28T01:58:04.463Z,0
2023-04-28T01:59:01.817Z,0
2023-04-28T02:00:02.435Z,0
2023-04-28T02:01:01.425Z,0.08055555555555555
2023-04-28T02:02:15.021Z,0.1611111111111111
2023-04-28T02:03:01.807Z,0
2023-04-28T02:04:01.346Z,0.18888888888888888
2023-04-28T02:05:01.441Z,0.11111111111111112
2023-04-28T02:06:01.047Z,0
2023-04-28T02:07:01.436Z,0
2023-04-28T02:08:01.172Z,0
2023-04-28T02:09:01.396Z,0
2023-04-28T02:10:01.477Z,0.15833333333333333
2023-04-28T02:11:01.453Z,0.11944444444444444
2023-04-28T02:12:00.773Z,0
2023-04-28T02:13:00.475Z,0
2023-04-28T02:14:00.190Z,0
2023-04-28T02:14:59.858Z,0
2023-04-28T02:16:01.554Z,0.3972222222222222
2023-04-28T02:17:01.109Z,0.2777777777777778
2023-04-28T02:18:01.152Z,0.31666666666666665
2023-04-28T02:19:01.307Z,0.2777777777777778
2023-04-28T02:20:02.168Z,0
2023-04-28T02:21:02.179Z,0
2023-04-28T02:22:01.057Z,0
2023-04-28T02:23:01.058Z,0.15833333333333333
2023-04-28T02:24:01.324Z,0.3
2023-04-28T02:25:01.115Z,0.23888888888888887
2023-04-28T02:26:01.080Z,0.23888888888888887
2023-04-28T02:27:01.019Z,0.23888888888888887
2023-04-28T02:28:01.396Z,0
2023-04-28T02:29:01.097Z,0
2023-04-28T02:30:01.114Z,0
2023-04-28T02:31:01.130Z,0
2023-04-28T02:32:01.210Z,0
2023-04-28T02:33:01.924Z,0
2023-04-28T02:34:01.131Z,0
2023-04-28T02:35:01.220Z,0
2023-04-28T02:36:01.222Z,0
2023-04-28T02:37:01.240Z,0
2023-04-28T02:38:01.020Z,0
2023-04-28T02:39:01.049Z,0
2023-04-28T02:40:01.069Z,0
2023-04-28T02:41:04.337Z,0
2023-04-28T02:42:01.757Z,0
2023-04-28T02:43:01.061Z,0
2023-04-28T02:44:01.079Z,0
2023-04-28T02:45:01.094Z,0
2023-04-28T02:46:01.086Z,0
2023-04-28T02:47:00.716Z,0
2023-04-28T02:48:00.421Z,0
2023-04-28T02:49:00.170Z,0
2023-04-28T02:49:59.774Z,0
2023-04-28T02:51:01.419Z,0
2023-04-28T02:52:01.123Z,0
2023-04-28T02:53:01.042Z,0
2023-04-28T02:54:01.810Z,0
2023-04-28T02:55:01.246Z,0
2023-04-28T02:56:01.230Z,0
2023-04-28T02:57:01.406Z,0
2023-04-28T02:58:01.066Z,0
2023-04-28T02:59:01.023Z,0
2023-04-28T03:00:01.012Z,0
2023-04-28T03:01:01.114Z,0
2023-04-28T03:02:01.100Z,0.15833333333333333
2023-04-28T03:03:01.396Z,0.25833333333333336
2023-04-28T03:04:04.124Z,0.07222222222222223
2023-04-28T03:05:01.280Z,0
2023-04-28T03:06:04.175Z,0
2023-04-28T03:07:01.142Z,0.31666666666666665
2023-04-28T03:08:01.022Z,0.45
2023-04-28T03:09:01.031Z,0.3972222222222222
2023-04-28T03:10:01.068Z,0.35833333333333334
2023-04-28T03:11:01.065Z,0.31666666666666665
2023-04-28T03:12:01.053Z,0.4361111111111111
2023-04-28T03:13:01.173Z,0.024999999999999998
2023-04-28T03:14:01.762Z,0
2023-04-28T03:15:01.024Z,0.35833333333333334
2023-04-28T03:16:01.724Z,0.4361111111111111
2023-04-28T03:17:01.961Z,0.2777777777777778
2023-04-28T03:18:01.319Z,0.3333333333333333
2023-04-28T03:19:00.927Z,0.35833333333333334
2023-04-28T03:20:01.108Z,0.31666666666666665
2023-04-28T03:21:01.102Z,0.23888888888888887
2023-04-28T03:22:01.126Z,0.3972222222222222
2023-04-28T03:23:01.809Z,0.2916666666666667
2023-04-28T03:24:03.502Z,0.41388888888888886
2023-04-28T03:25:01.627Z,0.19999999999999998
2023-04-28T03:26:01.102Z,0
2023-04-28T03:27:01.047Z,0.23888888888888887
2023-04-28T03:28:04.401Z,0.22222222222222224
2023-04-28T03:29:01.057Z,0.3972222222222222
2023-04-28T03:30:01.052Z,0.4361111111111111
2023-04-28T03:31:01.095Z,0.23888888888888887
2023-04-28T03:32:01.128Z,0.19999999999999998
2023-04-28T03:33:06.908Z,0.2833333333333333
2023-04-28T03:34:01.728Z,0.2333333333333333
2023-04-28T03:35:01.103Z,0.33888888888888885
2023-04-28T03:36:01.105Z,0.2777777777777778
2023-04-28T03:37:01.111Z,0.19999999999999998
2023-04-28T03:38:08.799Z,0.35555555555555557
2023-04-28T03:39:01.117Z,0.4361111111111111
2023-04-28T03:40:01.022Z,0.3972222222222222
2023-04-28T03:41:01.047Z,0.15833333333333333
2023-04-28T03:42:01.044Z,0.6361111111111111
2023-04-28T03:43:11.398Z,0.40555555555555556
2023-04-28T03:44:00.734Z,0.23888888888888887
2023-04-28T03:45:00.333Z,0.35833333333333334
2023-04-28T03:46:00.016Z,0.15833333333333333
2023-04-28T03:46:59.666Z,0
2023-04-28T03:48:14.270Z,0.17222222222222222
2023-04-28T03:49:01.760Z,0.3972222222222222
2023-04-28T03:50:02.518Z,0.3972222222222222
2023-04-28T03:51:01.386Z,0.5555555555555556
2023-04-28T03:52:01.100Z,0.31666666666666665
2023-04-28T03:53:16.598Z,0.34444444444444444
2023-04-28T03:54:01.602Z,0.23888888888888887
2023-04-28T03:55:01.794Z,0.31666666666666665
2023-04-28T03:56:01.176Z,0.35833333333333334
2023-04-28T03:57:01.026Z,0.19999999999999998
2023-04-28T03:58:01.037Z,0.2777777777777778
2023-04-28T03:59:01.043Z,0.47777777777777775
2023-04-28T04:00:01.376Z,0.23888888888888887
2023-04-28T04:01:01.082Z,0.19999999999999998
2023-04-28T04:02:01.498Z,0.2972222222222222
2023-04-28T04:03:01.307Z,0.31666666666666665
2023-04-28T04:04:01.382Z,0.23888888888888887
2023-04-28T04:05:01.362Z,0
2023-04-28T04:06:01.553Z,0.31666666666666665
2023-04-28T04:07:02.319Z,0.47777777777777775
2023-04-28T04:08:01.106Z,0.4361111111111111
2023-04-28T04:09:01.499Z,0.22222222222222224
2023-04-28T04:10:03.896Z,0.2777777777777778
2023-04-28T04:11:01.155Z,0.31666666666666665
2023-04-28T04:12:01.044Z,0.31666666666666665
2023-04-28T04:13:01.030Z,0.31666666666666665
2023-04-28T04:14:01.040Z,0.2777777777777778
2023-04-28T04:15:01.040Z,0.31666666666666665
2023-04-28T04:16:01.114Z,0.35833333333333334
2023-04-28T04:17:01.376Z,0.23888888888888887
2023-04-28T04:18:01.126Z,0.3972222222222222
2023-04-28T04:19:01.079Z,0.4361111111111111
2023-04-28T04:20:01.198Z,0.47777777777777775
2023-04-28T04:21:01.086Z,0.4361111111111111
2023-04-28T04:22:01.093Z,0.35833333333333334
2023-04-28T04:23:01.142Z,0.47777777777777775
2023-04-28T04:24:01.291Z,0.5555555555555556
2023-04-28T04:25:01.126Z,0.23888888888888887
2023-04-28T04:26:00.812Z,0.5166666666666667
2023-04-28T04:27:00.433Z,0.2777777777777778
2023-04-28T04:28:00.020Z,0.19999999999999998
2023-04-28T04:28:59.743Z,0.47777777777777775
2023-04-28T04:30:01.765Z,0.35833333333333334
2023-04-28T04:31:01.773Z,0.5972222222222222
2023-04-28T04:32:01.736Z,0.3972222222222222
2023-04-28T04:33:01.077Z,0.2777777777777778
2023-04-28T04:34:01.052Z,0.2777777777777778
2023-04-28T04:35:00.664Z,0.3972222222222222
2023-04-28T04:36:00.538Z,0.47777777777777775
2023-04-28T04:37:00.378Z,0.35833333333333334
2023-04-28T04:38:00.098Z,0.23888888888888887
2023-04-28T04:38:59.747Z,0.5166666666666667
2023-04-28T04:40:01.440Z,0.11944444444444444
2023-04-28T04:41:01.672Z,0.3972222222222222
2023-04-28T04:42:13.369Z,0.5555555555555556
2023-04-28T04:43:01.709Z,0.4361111111111111
2023-04-28T04:44:00.715Z,0.19999999999999998
2023-04-28T04:45:00.348Z,0.675
2023-04-28T04:46:00.167Z,0.9527777777777778
2023-04-28T04:46:59.936Z,0.5972222222222222
2023-04-28T04:47:59.748Z,0.5972222222222222
2023-04-28T04:49:02.108Z,0.46388888888888885
2023-04-28T04:50:01.081Z,0.31666666666666665
2023-04-28T04:51:01.085Z,0.35833333333333334
2023-04-28T04:52:01.079Z,0.8333333333333333
2023-04-28T04:53:01.074Z,0.3972222222222222
2023-04-28T04:54:01.335Z,0.3972222222222222
2023-04-28T04:55:01.400Z,0.8944444444444445
2023-04-28T04:56:01.357Z,0.5972222222222222
2023-04-28T04:57:01.101Z,0.5555555555555556
2023-04-28T04:58:01.113Z,0.4361111111111111
2023-04-28T04:59:01.123Z,0.34444444444444444
2023-04-28T05:00:01.015Z,1.0333333333333334
2023-04-28T05:01:01.304Z,0.9527777777777778
2023-04-28T05:02:01.997Z,0.7138888888888888
2023-04-28T05:03:01.781Z,0.5166666666666667
2023-04-28T05:04:01.038Z,0.5305555555555556
2023-04-28T05:05:12.458Z,0.5388888888888889
2023-04-28T05:06:01.035Z,0.4361111111111111
2023-04-28T05:07:01.004Z,0.31666666666666665
2023-04-28T05:08:01.022Z,0.3972222222222222
2023-04-28T05:09:01.019Z,0.6638888888888889
2023-04-28T05:10:01.035Z,0.5166666666666667
2023-04-28T05:11:01.102Z,0.47777777777777775
2023-04-28T05:12:01.032Z,0.875
2023-04-28T05:13:01.036Z,0.675
2023-04-28T05:14:01.353Z,0.6277777777777777
2023-04-28T05:15:03.791Z,0.3416666666666667
2023-04-28T05:16:01.975Z,0.5166666666666667
2023-04-28T05:17:01.064Z,0.5555555555555556
2023-04-28T05:18:01.117Z,0.5555555555555556
2023-04-28T05:19:04.812Z,0.3333333333333333
2023-04-28T05:20:01.172Z,0.8166666666666667
2023-04-28T05:21:01.331Z,0.4361111111111111
2023-04-28T05:22:02.432Z,0.8333333333333333
2023-04-28T05:23:02.463Z,0.6333333333333333
2023-04-28T05:24:06.759Z,0.3972222222222222
2023-04-28T05:25:01.169Z,0.5972222222222222
2023-04-28T05:26:01.083Z,0.47777777777777775
2023-04-28T05:27:01.190Z,0.47777777777777775
2023-04-28T05:28:01.216Z,0.47777777777777775
2023-04-28T05:29:09.769Z,0.29444444444444445
2023-04-28T05:30:01.352Z,0.5166666666666667
2023-04-28T05:31:02.129Z,0.4722222222222222
2023-04-28T05:32:01.582Z,0.31666666666666665
2023-04-28T05:33:01.441Z,0.5972222222222222
2023-04-28T05:34:13.131Z,0.4805555555555555
2023-04-28T05:35:01.054Z,0.47777777777777775
2023-04-28T05:36:01.203Z,0.2777777777777778
2023-04-28T05:37:01.880Z,0.2777777777777778
2023-04-28T05:38:01.067Z,0.2777777777777778
2023-04-28T05:39:15.405Z,0.26944444444444443
2023-04-28T05:40:00.772Z,0.4555555555555555
2023-04-28T05:41:00.355Z,0.7138888888888888
2023-04-28T05:41:59.937Z,0.31666666666666665
2023-04-28T05:42:59.596Z,0.7138888888888888
2023-04-28T05:44:01.330Z,0.7138888888888888
2023-04-28T05:45:02.020Z,0.675
2023-04-28T05:46:09.724Z,0.31666666666666665
2023-04-28T05:47:01.351Z,0.19999999999999998
2023-04-28T05:48:01.157Z,0.2777777777777778
2023-04-28T05:49:01.863Z,0.47777777777777775
2023-04-28T05:50:02.390Z,1.2527777777777778
2023-04-28T05:51:01.079Z,0.7138888888888888
2023-04-28T05:52:01.064Z,0.31666666666666665
2023-04-28T05:53:01.046Z,0.35833333333333334
2023-04-28T05:54:01.053Z,0.5972222222222222
2023-04-28T05:55:01.072Z,0.6361111111111111
2023-04-28T05:56:01.090Z,0.7138888888888888
2023-04-28T05:57:01.591Z,0.35833333333333334
2023-04-28T05:58:01.088Z,0.675
2023-04-28T05:59:01.402Z,0.47777777777777775
2023-04-28T06:00:01.127Z,0.7944444444444444
2023-04-28T06:01:01.101Z,0.8333333333333333
2023-04-28T06:02:01.123Z,0.9944444444444445
2023-04-28T06:03:01.252Z,1.5083333333333333
2023-04-28T06:04:01.563Z,0.7138888888888888
2023-04-28T06:05:02.436Z,1.2277777777777776
2023-04-28T06:06:01.389Z,1.6694444444444443
2023-04-28T06:07:01.861Z,0.875
2023-04-28T06:08:01.040Z,0.9527777777777778
2023-04-28T06:09:01.088Z,0.5555555555555556
2023-04-28T06:10:01.195Z,0.7555555555555555
2023-04-28T06:11:01.611Z,0.7555555555555555
2023-04-28T06:12:01.418Z,1.6972222222222222
2023-04-28T06:13:01.184Z,0.5166666666666667
2023-04-28T06:14:01.024Z,0.7138888888888888
2023-04-28T06:15:01.100Z,1.35
2023-04-28T06:16:01.085Z,1.2722222222222221
2023-04-28T06:17:00.783Z,0.875
2023-04-28T06:18:01.167Z,0.9138888888888889
2023-04-28T06:19:01.340Z,1.2305555555555554
2023-04-28T06:20:01.124Z,0.5972222222222222
2023-04-28T06:21:03.897Z,0.9527777777777778
2023-04-28T06:22:02.207Z,0.6361111111111111
2023-04-28T06:23:00.837Z,0.7555555555555555
2023-04-28T06:24:00.421Z,1.152777777777778
2023-04-28T06:25:00.074Z,1.55
2023-04-28T06:25:59.725Z,1.152777777777778
2023-04-28T06:27:01.473Z,0.5972222222222222
2023-04-28T06:28:01.448Z,1.786111111111111
2023-04-28T06:29:01.456Z,0.9527777777777778
2023-04-28T06:30:02.190Z,0.6527777777777778
2023-04-28T06:31:01.330Z,0.31666666666666665
2023-04-28T06:32:01.130Z,1.4694444444444443
2023-04-28T06:33:01.139Z,0.6361111111111111
2023-04-28T06:34:02.106Z,0.675
2023-04-28T06:35:01.228Z,1.0722222222222222
2023-04-28T06:36:01.558Z,1.2944444444444445
2023-04-28T06:37:01.280Z,1.3111111111111111
2023-04-28T06:38:00.742Z,0.9944444444444445
2023-04-28T06:39:00.311Z,0.9138888888888889
2023-04-28T06:39:59.858Z,0.3972222222222222
2023-04-28T06:40:59.503Z,0.5555555555555556
2023-04-28T06:42:01.115Z,0.15833333333333333
2023-04-28T06:43:01.172Z,0.6361111111111111
2023-04-28T06:44:01.328Z,0.9527777777777778
2023-04-28T06:45:00.994Z,0.7
2023-04-28T06:46:01.486Z,0.6388888888888888
2023-04-28T06:47:01.136Z,0.6361111111111111
2023-04-28T06:48:01.099Z,1.0722222222222222
2023-04-28T06:49:01.114Z,1.3111111111111111
2023-04-28T06:50:01.025Z,0.6638888888888889
2023-04-28T06:51:00.702Z,0.47777777777777775
2023-04-28T06:52:00.258Z,1.1111111111111112
2023-04-28T06:53:00.103Z,0.9527777777777778
2023-04-28T06:54:00.135Z,0.7944444444444444
2023-04-28T06:54:59.790Z,0.9583333333333334
2023-04-28T06:56:02.266Z,0.23888888888888887
2023-04-28T06:57:01.063Z,0.9527777777777778
2023-04-28T06:58:01.294Z,0.5972222222222222
2023-04-28T06:59:01.068Z,0.47777777777777775
2023-04-28T07:00:01.098Z,1.1194444444444445
2023-04-28T07:01:01.391Z,0.35833333333333334
2023-04-28T07:02:03.816Z,0.9527777777777778
2023-04-28T07:03:01.444Z,0.675
2023-04-28T07:04:01.488Z,0.9138888888888889
2023-04-28T07:05:01.859Z,0.5277777777777778
2023-04-28T07:06:02.025Z,0.9138888888888889
2023-04-28T07:07:01.129Z,0.35833333333333334
2023-04-28T07:08:01.115Z,0.4361111111111111
2023-04-28T07:09:01.141Z,0.9944444444444445
2023-04-28T07:10:03.704Z,0.7888888888888889
2023-04-28T07:11:01.052Z,1.2305555555555554
2023-04-28T07:12:01.055Z,0.675
2023-04-28T07:13:01.112Z,0.35833333333333334
2023-04-28T07:14:01.052Z,0.35833333333333334
2023-04-28T07:15:06.615Z,0.6888888888888889
2023-04-28T07:16:01.158Z,0.9527777777777778
2023-04-28T07:17:01.087Z,1.0333333333333334
2023-04-28T07:18:01.156Z,0.675
2023-04-28T07:19:01.128Z,0.23888888888888887
2023-04-28T07:20:09.270Z,0.5416666666666666
2023-04-28T07:21:03.334Z,0.15833333333333333
2023-04-28T07:22:01.681Z,0.7138888888888888
2023-04-28T07:23:01.020Z,1.6277777777777778
2023-04-28T07:24:01.197Z,1.3916666666666666
2023-04-28T07:25:10.695Z,1.0333333333333334
2023-04-28T07:26:01.371Z,0.9138888888888889
2023-04-28T07:27:01.044Z,0.675
2023-04-28T07:28:01.752Z,1.2722222222222221
2023-04-28T07:29:01.282Z,0.7555555555555555
2023-04-28T07:30:26.500Z,0.85
2023-04-28T07:31:02.102Z,1.1916666666666667
2023-04-28T07:32:01.138Z,0.3972222222222222
2023-04-28T07:33:01.137Z,0.875
2023-04-28T07:34:01.369Z,0.5972222222222222
2023-04-28T07:35:16.911Z,0.6888888888888889
2023-04-28T07:36:02.221Z,0.5555555555555556
2023-04-28T07:37:01.095Z,0.35833333333333334
2023-04-28T07:38:01.111Z,0.11944444444444444
2023-04-28T07:39:01.112Z,0.875
2023-04-28T07:40:01.123Z,0.675
2023-04-28T07:41:01.131Z,1.1111111111111112
2023-04-28T07:42:01.035Z,0.5555555555555556
2023-04-28T07:43:01.029Z,1.2722222222222221
2023-04-28T07:44:01.149Z,1.3111111111111111
2023-04-28T07:45:00.712Z,0.5972222222222222
2023-04-28T07:46:00.347Z,1.3111111111111111
2023-04-28T07:46:59.929Z,1.2305555555555554
2023-04-28T07:47:59.574Z,1.9472222222222222
2023-04-28T07:49:01.733Z,1.2305555555555554
2023-04-28T07:50:01.089Z,0.5972222222222222
2023-04-28T07:51:01.137Z,0.9944444444444445
2023-04-28T07:52:01.089Z,0.15833333333333333
2023-04-28T07:53:01.098Z,0.5972222222222222
2023-04-28T07:54:01.115Z,1.1111111111111112
2023-04-28T07:55:01.508Z,1.2166666666666666
2023-04-28T07:56:03.888Z,0.5972222222222222
2023-04-28T07:57:01.841Z,0.7138888888888888
2023-04-28T07:58:01.019Z,0.19999999999999998
2023-04-28T07:59:01.092Z,0.3972222222222222
2023-04-28T08:00:01.041Z,0.35833333333333334
2023-04-28T08:01:01.051Z,0.875
2023-04-28T08:02:01.053Z,0.5972222222222222
2023-04-28T08:03:01.197Z,0.7944444444444444
2023-04-28T08:04:01.700Z,1.2194444444444443
2023-04-28T08:05:02.196Z,1.9555555555555555
2023-04-28T08:06:01.686Z,1.4305555555555556
2023-04-28T08:07:01.076Z,0.9944444444444445
2023-04-28T08:08:01.087Z,0.7555555555555555
2023-04-28T08:09:01.090Z,0.3972222222222222
2023-04-28T08:10:01.133Z,0.3972222222222222
2023-04-28T08:11:01.128Z,0.9944444444444445
2023-04-28T08:12:01.746Z,0.2777777777777778
2023-04-28T08:13:01.142Z,0.6361111111111111
2023-04-28T08:14:01.053Z,0.4361111111111111
2023-04-28T08:15:01.023Z,0.7138888888888888
2023-04-28T08:16:01.276Z,0.23888888888888887
2023-04-28T08:17:01.426Z,0.4666666666666666
2023-04-28T08:18:01.204Z,0.23888888888888887
2023-04-28T08:19:02.287Z,1.075
2023-04-28T08:20:01.416Z,0.7555555555555555
2023-04-28T08:21:01.977Z,0.8333333333333333
2023-04-28T08:22:01.076Z,0.47777777777777775
2023-04-28T08:23:01.399Z,1.5888888888888888
2023-04-28T08:24:01.285Z,1.2305555555555554
2023-04-28T08:25:00.986Z,0.6361111111111111
2023-04-28T08:26:01.415Z,1.7249999999999999
2023-04-28T08:27:01.108Z,0.7138888888888888
2023-04-28T08:28:01.028Z,0.8333333333333333
2023-04-28T08:29:01.027Z,1.152777777777778
2023-04-28T08:30:01.025Z,1.55
2023-04-28T08:31:01.265Z,0.3972222222222222
2023-04-28T08:32:02.154Z,0.2888888888888889
2023-04-28T08:33:02.110Z,0.8027777777777778
2023-04-28T08:34:02.112Z,0.47777777777777775
2023-04-28T08:35:00.856Z,0.5166666666666667
2023-04-28T08:36:00.802Z,1.452777777777778
2023-04-28T08:37:01.060Z,1.0722222222222222
2023-04-28T08:38:01.075Z,0.9527777777777778
2023-04-28T08:39:01.120Z,0.8333333333333333
2023-04-28T08:40:01.516Z,0.9138888888888889
2023-04-28T08:41:01.538Z,1.0333333333333334
2023-04-28T08:42:01.285Z,0.8333333333333333
2023-04-28T08:43:01.102Z,1.3111111111111111
2023-04-28T08:44:01.129Z,0.8333333333333333
2023-04-28T08:45:00.748Z,0.875
2023-04-28T08:46:00.408Z,0.8972222222222221
2023-04-28T08:47:00.112Z,0.4361111111111111
2023-04-28T08:47:59.867Z,1.5083333333333333
2023-04-28T08:48:59.778Z,1.4305555555555556
2023-04-28T08:50:01.453Z,1.0722222222222222
2023-04-28T08:51:02.658Z,0.9416666666666667
2023-04-28T08:52:01.176Z,1.5888888888888888
2023-04-28T08:53:01.074Z,1.4305555555555556
2023-04-28T08:55:01.099Z,0.8333333333333333
2023-04-28T08:56:01.111Z,0.7388888888888889
2023-04-28T08:57:01.112Z,0.875
2023-04-28T08:58:01.106Z,0.9527777777777778
2023-04-28T08:59:01.102Z,0.7555555555555555
2023-04-28T09:00:01.135Z,0.5555555555555556
2023-04-28T09:01:01.243Z,0.41944444444444445
2023-04-28T09:02:01.203Z,0.47777777777777775
2023-04-28T09:03:01.141Z,0.6361111111111111
2023-04-28T09:04:01.254Z,1.2305555555555554
2023-04-28T09:05:02.076Z,0.31666666666666665
2023-04-28T09:06:05.456Z,0.14722222222222223
2023-04-28T09:07:01.128Z,0.5555555555555556
2023-04-28T09:08:01.113Z,0.23888888888888887
2023-04-28T09:09:01.466Z,0.9138888888888889
2023-04-28T09:10:01.186Z,0.5166666666666667
2023-04-28T09:11:06.439Z,0.31666666666666665
2023-04-28T09:12:02.199Z,0.675
2023-04-28T09:13:02.922Z,0.11111111111111112
2023-04-28T09:14:01.120Z,0.5972222222222222
2023-04-28T09:15:01.135Z,0.3972222222222222
2023-04-28T09:16:09.478Z,1.5138888888888888
2023-04-28T09:17:01.869Z,0.8333333333333333
2023-04-28T09:18:01.054Z,0.4361111111111111
2023-04-28T09:19:01.406Z,0.4305555555555556
2023-04-28T09:20:01.137Z,0.15833333333333333
2023-04-28T09:21:12.732Z,0.36944444444444446
2023-04-28T09:22:05.683Z,0.19999999999999998
2023-04-28T09:23:01.759Z,0.3972222222222222
2023-04-28T09:24:01.183Z,1.3111111111111111
2023-04-28T09:25:01.301Z,1.2305555555555554
2023-04-28T09:26:15.458Z,0.6638888888888889
2023-04-28T09:27:01.439Z,0.3972222222222222
2023-04-28T09:28:01.486Z,0.2638888888888889
2023-04-28T09:29:02.161Z,0.25277777777777777
2023-04-28T09:30:01.095Z,0.2777777777777778
2023-04-28T09:31:01.119Z,1.1916666666666667
2023-04-28T09:32:01.166Z,1.1111111111111112
2023-04-28T09:33:01.044Z,0.31666666666666665
2023-04-28T09:34:01.020Z,0.3972222222222222
2023-04-28T09:35:01.037Z,0.47777777777777775
2023-04-28T09:36:01.028Z,0.47777777777777775
2023-04-28T09:37:02.168Z,0.18611111111111112
2023-04-28T09:38:01.448Z,1.4305555555555556
2023-04-28T09:39:01.057Z,0.15833333333333333
2023-04-28T09:40:01.068Z,0.7138888888888888
2023-04-28T09:41:01.337Z,0.19999999999999998
2023-04-28T09:42:02.101Z,0.2777777777777778
2023-04-28T09:43:15.092Z,0.7138888888888888
2023-04-28T09:44:01.094Z,0.3972222222222222
2023-04-28T09:45:00.785Z,0.23888888888888887
2023-04-28T09:46:00.514Z,1.152777777777778
2023-04-28T09:47:00.169Z,0.3972222222222222
2023-04-28T09:47:59.866Z,0.9138888888888889
2023-04-28T09:48:59.485Z,0.875
2023-04-28T09:50:01.050Z,0.6361111111111111
2023-04-28T09:51:01.045Z,0.8333333333333333
2023-04-28T09:52:01.017Z,0.31666666666666665
2023-04-28T09:53:00.755Z,0.4361111111111111
2023-04-28T09:54:00.443Z,1.3916666666666666
2023-04-28T09:55:00.051Z,0.19999999999999998
2023-04-28T09:55:59.632Z,0.7555555555555555
2023-04-28T09:57:01.797Z,0.6361111111111111
2023-04-28T09:58:01.761Z,1.4305555555555556
2023-04-28T09:59:01.826Z,0.9944444444444445
2023-04-28T10:00:01.380Z,0.31666666666666665
2023-04-28T10:01:01.202Z,0.9138888888888889
2023-04-28T10:02:08.919Z,0.19999999999999998
2023-04-28T10:03:01.447Z,0.19999999999999998
2023-04-28T10:04:02.660Z,0.9944444444444445
2023-04-28T10:05:01.504Z,1.4694444444444443
2023-04-28T10:06:01.541Z,0.225
2023-04-28T10:07:01.845Z,0.15833333333333333
2023-04-28T10:08:01.728Z,0.08055555555555555
2023-04-28T10:09:02.063Z,0.7555555555555555
2023-04-28T10:10:02.179Z,0.23888888888888887
2023-04-28T10:11:01.070Z,0.15833333333333333
2023-04-28T10:12:01.190Z,0.5972222222222222
2023-04-28T10:13:01.069Z,0
2023-04-28T10:14:01.113Z,0.3972222222222222
2023-04-28T10:15:01.090Z,0.4361111111111111
2023-04-28T10:16:01.161Z,0.7138888888888888
2023-04-28T10:17:01.203Z,0.35833333333333334